Cheyenne Mountain AFB, Colorado
Current Conditions -  °F | °C
As of 7:54 PM on Saturday 25 Oct 2014 (Local Time) from KCOS Reporting Station
Clear Clear  
Wind Chill: 64°   Ceiling: Unl
Heat Index: 64°   Visibility: 10mi
Dew Point: 22°   Wind: 8mph
Humidity: 20%   Direction: 210°SSW
Pressure: 30.12"   Gusts: NA
Location:  38.8076°N, 104.704°W
Report Text: KCOS 260154Z 21007KT 10SM CLR 18/M06 A3012 RMK AO2 SLP140 T01781056
Loading
Personal Weather Stations






























Interactive Weather Map
Tropical Storm Tracking
New forecast layout! Learn more

10-Day Weather Forecast

Advertisements
Track Severe Weather on mobile